sensor_id;sensor_type;location;lat;lon;timestamp;pressure;altitude;pressure_sealevel;temperature;humidity
51313;BME280;37397;53.226;10.400;2023-06-24T00:02:18;101906.22;;;20.53;54.40
51313;BME280;37397;53.226;10.400;2023-06-24T00:04:45;101899.34;;;20.50;54.29
51313;BME280;37397;53.226;10.400;2023-06-24T00:07:11;101900.13;;;20.45;54.90
51313;BME280;37397;53.226;10.400;2023-06-24T00:09:38;101893.81;;;20.47;54.24
51313;BME280;37397;53.226;10.400;2023-06-24T00:12:06;101883.28;;;20.44;54.61
51313;BME280;37397;53.226;10.400;2023-06-24T00:14:32;101885.91;;;20.42;54.72
51313;BME280;37397;53.226;10.400;2023-06-24T00:16:59;101886.97;;;20.38;54.90
51313;BME280;37397;53.226;10.400;2023-06-24T00:19:26;101896.97;;;20.37;54.93
51313;BME280;37397;53.226;10.400;2023-06-24T00:21:55;101887.72;;;20.33;54.55
51313;BME280;37397;53.226;10.400;2023-06-24T00:24:23;101890.38;;;20.31;54.68
51313;BME280;37397;53.226;10.400;2023-06-24T00:26:52;101889.56;;;20.25;54.85
51313;BME280;37397;53.226;10.400;2023-06-24T00:29:19;101900.91;;;20.29;54.69
51313;BME280;37397;53.226;10.400;2023-06-24T00:31:46;101900.38;;;20.25;54.84
51313;BME280;37397;53.226;10.400;2023-06-24T00:34:13;101905.09;;;20.22;54.54
51313;BME280;37397;53.226;10.400;2023-06-24T00:36:40;101908.25;;;20.18;54.74
51313;BME280;37397;53.226;10.400;2023-06-24T00:39:07;101912.72;;;20.14;54.49
51313;BME280;37397;53.226;10.400;2023-06-24T00:41:35;101916.16;;;20.12;54.46
51313;BME280;37397;53.226;10.400;2023-06-24T00:44:02;101918.00;;;20.10;54.68
51313;BME280;37397;53.226;10.400;2023-06-24T00:46:30;101924.84;;;20.07;54.53
51313;BME280;37397;53.226;10.400;2023-06-24T00:48:59;101922.47;;;20.05;55.04
51313;BME280;37397;53.226;10.400;2023-06-24T00:51:29;101927.19;;;20.02;54.92
51313;BME280;37397;53.226;10.400;2023-06-24T00:53:58;101929.56;;;19.98;55.29
51313;BME280;37397;53.226;10.400;2023-06-24T00:56:31;101938.78;;;19.97;54.60
51313;BME280;37397;53.226;10.400;2023-06-24T00:58:58;101932.44;;;19.93;54.97
51313;BME280;37397;53.226;10.400;2023-06-24T01:01:33;101933.97;;;19.88;54.78
51313;BME280;37397;53.226;10.400;2023-06-24T01:04:02;101941.13;;;19.87;55.33
51313;BME280;37397;53.226;10.400;2023-06-24T01:06:30;101940.56;;;19.83;55.36
51313;BME280;37397;53.226;10.400;2023-06-24T01:08:57;101935.81;;;19.80;55.45
51313;BME280;37397;53.226;10.400;2023-06-24T01:11:27;101933.94;;;19.77;55.68
51313;BME280;37397;53.226;10.400;2023-06-24T01:13:55;101941.84;;;19.76;55.51
51313;BME280;37397;53.226;10.400;2023-06-24T01:16:37;101937.84;;;19.74;55.75
51313;BME280;37397;53.226;10.400;2023-06-24T01:28:00;101945.69;;;19.56;55.75
51313;BME280;37397;53.226;10.400;2023-06-24T01:31:17;101938.81;;;19.54;55.45
51313;BME280;37397;53.226;10.400;2023-06-24T01:36:46;101939.59;;;19.48;56.09
51313;BME280;37397;53.226;10.400;2023-06-24T01:39:16;101948.00;;;19.46;56.21
51313;BME280;37397;53.226;10.400;2023-06-24T01:41:54;101948.22;;;19.43;56.06
51313;BME280;37397;53.226;10.400;2023-06-24T01:44:22;101952.44;;;19.42;56.32
51313;BME280;37397;53.226;10.400;2023-06-24T01:46:51;101950.59;;;19.39;56.65
51313;BME280;37397;53.226;10.400;2023-06-24T01:49:19;101957.66;;;19.38;56.71
51313;BME280;37397;53.226;10.400;2023-06-24T01:51:49;101954.50;;;19.36;56.96
51313;BME280;37397;53.226;10.400;2023-06-24T01:54:18;101955.53;;;19.33;56.71
51313;BME280;37397;53.226;10.400;2023-06-24T01:56:47;101954.19;;;19.28;56.65
51313;BME280;37397;53.226;10.400;2023-06-24T01:59:17;101959.97;;;19.28;57.10
51313;BME280;37397;53.226;10.400;2023-06-24T02:01:45;101955.72;;;19.23;56.76
51313;BME280;37397;53.226;10.400;2023-06-24T02:04:13;101964.16;;;19.21;56.99
51313;BME280;37397;53.226;10.400;2023-06-24T02:06:42;101957.78;;;19.17;56.80
51313;BME280;37397;53.226;10.400;2023-06-24T02:09:11;101955.72;;;19.18;57.00
51313;BME280;37397;53.226;10.400;2023-06-24T02:11:38;101962.22;;;19.12;56.98
51313;BME280;37397;53.226;10.400;2023-06-24T02:14:07;101959.34;;;19.12;57.08
51313;BME280;37397;53.226;10.400;2023-06-24T02:16:37;101959.31;;;19.07;57.42
51313;BME280;37397;53.226;10.400;2023-06-24T02:19:08;101955.91;;;19.08;57.05
51313;BME280;37397;53.226;10.400;2023-06-24T02:21:38;101965.09;;;19.07;57.13
51313;BME280;37397;53.226;10.400;2023-06-24T02:24:05;101967.19;;;19.06;57.23
51313;BME280;37397;53.226;10.400;2023-06-24T02:26:34;101960.06;;;19.02;57.38
51313;BME280;37397;53.226;10.400;2023-06-24T02:29:04;101963.97;;;18.99;57.39
51313;BME280;37397;53.226;10.400;2023-06-24T02:31:31;101970.81;;;19.01;57.32
51313;BME280;37397;53.226;10.400;2023-06-24T02:33:57;101961.09;;;18.99;57.29
51313;BME280;37397;53.226;10.400;2023-06-24T02:36:24;101954.19;;;18.90;57.49
51313;BME280;37397;53.226;10.400;2023-06-24T02:38:50;101952.84;;;18.91;57.38
51313;BME280;37397;53.226;10.400;2023-06-24T02:41:17;101972.09;;;18.94;57.50
51313;BME280;37397;53.226;10.400;2023-06-24T02:43:43;101960.19;;;18.87;57.64
51313;BME280;37397;53.226;10.400;2023-06-24T02:46:10;101975.72;;;18.89;57.58
51313;BME280;37397;53.226;10.400;2023-06-24T02:48:39;101976.75;;;18.86;57.72
51313;BME280;37397;53.226;10.400;2023-06-24T02:51:07;101971.97;;;18.83;57.36
51313;BME280;37397;53.226;10.400;2023-06-24T02:53:34;101977.75;;;18.83;57.67
51313;BME280;37397;53.226;10.400;2023-06-24T02:56:03;101969.03;;;18.77;57.50
51313;BME280;37397;53.226;10.400;2023-06-24T02:58:33;101967.66;;;18.73;57.64
51313;BME280;37397;53.226;10.400;2023-06-24T03:01:04;101973.72;;;18.75;58.10
51313;BME280;37397;53.226;10.400;2023-06-24T03:03:47;101980.03;;;18.73;58.21
51313;BME280;37397;53.226;10.400;2023-06-24T03:06:17;101977.88;;;18.68;57.80
51313;BME280;37397;53.226;10.400;2023-06-24T03:08:45;101981.84;;;18.71;58.17
51313;BME280;37397;53.226;10.400;2023-06-24T03:11:13;101999.22;;;18.71;57.95
51313;BME280;37397;53.226;10.400;2023-06-24T03:13:41;102001.00;;;18.68;58.03
51313;BME280;37397;53.226;10.400;2023-06-24T03:16:14;102005.69;;;18.66;58.02
51313;BME280;37397;53.226;10.400;2023-06-24T03:18:51;102000.44;;;18.64;57.86
51313;BME280;37397;53.226;10.400;2023-06-24T03:21:18;101997.25;;;18.62;58.32
51313;BME280;37397;53.226;10.400;2023-06-24T03:23:45;101999.59;;;18.58;58.37
51313;BME280;37397;53.226;10.400;2023-06-24T03:26:14;101992.50;;;18.59;58.46
51313;BME280;37397;53.226;10.400;2023-06-24T03:28:42;101993.00;;;18.57;58.55
51313;BME280;37397;53.226;10.400;2023-06-24T03:31:14;101986.69;;;18.53;58.37
51313;BME280;37397;53.226;10.400;2023-06-24T03:33:45;101986.94;;;18.55;58.32
51313;BME280;37397;53.226;10.400;2023-06-24T03:36:13;101996.91;;;18.54;58.54
51313;BME280;37397;53.226;10.400;2023-06-24T03:38:40;101992.97;;;18.52;58.38
51313;BME280;37397;53.226;10.400;2023-06-24T03:41:07;101992.16;;;18.51;58.59
51313;BME280;37397;53.226;10.400;2023-06-24T03:43:34;101990.00;;;18.46;58.27
51313;BME280;37397;53.226;10.400;2023-06-24T03:46:00;101996.59;;;18.47;58.18
51313;BME280;37397;53.226;10.400;2023-06-24T03:48:27;101996.28;;;18.45;58.52
51313;BME280;37397;53.226;10.400;2023-06-24T03:50:54;101995.22;;;18.42;58.45
51313;BME280;37397;53.226;10.400;2023-06-24T03:53:21;102000.00;;;18.45;58.83
51313;BME280;37397;53.226;10.400;2023-06-24T03:55:47;102001.78;;;18.43;58.66
51313;BME280;37397;53.226;10.400;2023-06-24T03:58:14;101994.66;;;18.38;58.53
51313;BME280;37397;53.226;10.400;2023-06-24T04:00:43;101998.13;;;18.42;59.12
51313;BME280;37397;53.226;10.400;2023-06-24T04:03:10;102000.19;;;18.41;59.00
51313;BME280;37397;53.226;10.400;2023-06-24T04:05:38;101997.81;;;18.40;58.72
51313;BME280;37397;53.226;10.400;2023-06-24T04:08:05;101989.88;;;18.35;58.90
51313;BME280;37397;53.226;10.400;2023-06-24T04:10:33;101999.13;;;18.39;59.02
51313;BME280;37397;53.226;10.400;2023-06-24T04:12:59;102010.38;;;18.37;58.82
51313;BME280;37397;53.226;10.400;2023-06-24T04:15:26;102007.50;;;18.37;59.04
51313;BME280;37397;53.226;10.400;2023-06-24T04:17:53;102007.50;;;18.37;59.04
51313;BME280;37397;53.226;10.400;2023-06-24T04:20:20;102009.59;;;18.36;59.05
51313;BME280;37397;53.226;10.400;2023-06-24T04:22:47;102008.03;;;18.35;59.18
51313;BME280;37397;53.226;10.400;2023-06-24T04:25:15;102000.16;;;18.36;59.09
51313;BME280;37397;53.226;10.400;2023-06-24T04:27:42;101997.25;;;18.36;59.33
51313;BME280;37397;53.226;10.400;2023-06-24T04:30:09;101997.25;;;18.36;59.64
51313;BME280;37397;53.226;10.400;2023-06-24T04:32:36;102000.69;;;18.40;59.50
51313;BME280;37397;53.226;10.400;2023-06-24T04:35:02;102003.31;;;18.38;59.31
51313;BME280;37397;53.226;10.400;2023-06-24T04:37:31;101999.41;;;18.41;59.68
51313;BME280;37397;53.226;10.400;2023-06-24T04:39:58;102005.97;;;18.41;59.57
51313;BME280;37397;53.226;10.400;2023-06-24T04:42:25;102006.78;;;18.42;59.44
51313;BME280;37397;53.226;10.400;2023-06-24T04:44:51;102009.69;;;18.42;59.81
51313;BME280;37397;53.226;10.400;2023-06-24T04:47:18;102010.75;;;18.45;59.99
51313;BME280;37397;53.226;10.400;2023-06-24T04:49:45;102011.25;;;18.43;60.06
51313;BME280;37397;53.226;10.400;2023-06-24T04:52:12;102017.91;;;18.49;60.01
51313;BME280;37397;53.226;10.400;2023-06-24T04:54:38;102011.84;;;18.47;59.89
51313;BME280;37397;53.226;10.400;2023-06-24T04:57:09;102021.88;;;18.52;59.89
51313;BME280;37397;53.226;10.400;2023-06-24T04:59:36;102017.66;;;18.53;60.13
51313;BME280;37397;53.226;10.400;2023-06-24T05:02:04;102016.66;;;18.56;60.11
51313;BME280;37397;53.226;10.400;2023-06-24T05:04:30;102015.06;;;18.55;60.17
51313;BME280;37397;53.226;10.400;2023-06-24T05:06:57;102025.41;;;18.62;60.08
51313;BME280;37397;53.226;10.400;2023-06-24T05:09:24;102020.41;;;18.62;60.34
51313;BME280;37397;53.226;10.400;2023-06-24T05:11:50;102019.38;;;18.65;60.40
51313;BME280;37397;53.226;10.400;2023-06-24T05:14:17;102018.88;;;18.67;60.71
51313;BME280;37397;53.226;10.400;2023-06-24T05:16:43;102021.53;;;18.70;60.83
51313;BME280;37397;53.226;10.400;2023-06-24T05:19:11;102021.53;;;18.70;60.94
51313;BME280;37397;53.226;10.400;2023-06-24T05:21:37;102027.38;;;18.76;61.04
51313;BME280;37397;53.226;10.400;2023-06-24T05:24:04;102025.56;;;18.78;60.92
51313;BME280;37397;53.226;10.400;2023-06-24T05:26:31;102025.66;;;18.84;61.02
51313;BME280;37397;53.226;10.400;2023-06-24T05:28:57;102016.47;;;18.86;61.13
51313;BME280;37397;53.226;10.400;2023-06-24T05:31:24;102013.56;;;18.86;60.90
51313;BME280;37397;53.226;10.400;2023-06-24T05:33:50;102025.75;;;18.95;61.13
51313;BME280;37397;53.226;10.400;2023-06-24T05:36:17;102023.13;;;18.98;60.94
51313;BME280;37397;53.226;10.400;2023-06-24T05:38:43;102027.91;;;19.01;60.72
51313;BME280;37397;53.226;10.400;2023-06-24T05:41:10;102021.34;;;19.06;60.64
51313;BME280;37397;53.226;10.400;2023-06-24T05:43:36;102022.44;;;19.08;60.72
51313;BME280;37397;53.226;10.400;2023-06-24T05:46:03;102017.16;;;19.07;60.57
51313;BME280;37397;53.226;10.400;2023-06-24T05:48:30;102000.66;;;19.13;60.74
51313;BME280;37397;53.226;10.400;2023-06-24T05:50:57;101992.25;;;19.15;60.64
51313;BME280;37397;53.226;10.400;2023-06-24T05:53:23;102005.19;;;19.20;61.01
51313;BME280;37397;53.226;10.400;2023-06-24T05:55:51;102022.06;;;19.27;60.70
51313;BME280;37397;53.226;10.400;2023-06-24T05:58:17;102008.66;;;19.29;60.94
51313;BME280;37397;53.226;10.400;2023-06-24T06:00:44;102015.03;;;19.34;60.82
51313;BME280;37397;53.226;10.400;2023-06-24T06:03:10;102003.97;;;19.38;60.54
51313;BME280;37397;53.226;10.400;2023-06-24T06:05:37;101998.19;;;19.38;60.51
51313;BME280;37397;53.226;10.400;2023-06-24T06:08:03;102002.19;;;19.40;60.67
51313;BME280;37397;53.226;10.400;2023-06-24T06:10:30;102011.69;;;19.46;60.13
51313;BME280;37397;53.226;10.400;2023-06-24T06:12:56;102008.81;;;19.46;60.48
51313;BME280;37397;53.226;10.400;2023-06-24T06:15:23;102014.34;;;19.50;60.68
51313;BME280;37397;53.226;10.400;2023-06-24T06:17:52;102010.13;;;19.51;60.47
51313;BME280;37397;53.226;10.400;2023-06-24T06:20:18;102009.91;;;19.55;60.34
51313;BME280;37397;53.226;10.400;2023-06-24T06:22:45;102009.09;;;19.54;60.53
51313;BME280;37397;53.226;10.400;2023-06-24T06:25:11;102018.09;;;19.62;60.83
51313;BME280;37397;53.226;10.400;2023-06-24T06:27:38;102018.88;;;19.62;60.70
51313;BME280;37397;53.226;10.400;2023-06-24T06:30:05;102017.84;;;19.65;60.40
51313;BME280;37397;53.226;10.400;2023-06-24T06:32:32;102037.59;;;19.67;60.85
51313;BME280;37397;53.226;10.400;2023-06-24T06:34:58;102037.38;;;19.71;60.75
51313;BME280;37397;53.226;10.400;2023-06-24T06:37:25;102040.56;;;19.73;60.32
51313;BME280;37397;53.226;10.400;2023-06-24T06:39:51;102037.66;;;19.73;60.72
51313;BME280;37397;53.226;10.400;2023-06-24T06:42:18;102048.25;;;19.76;60.84
51313;BME280;37397;53.226;10.400;2023-06-24T06:44:45;102043.50;;;19.78;60.65
51313;BME280;37397;53.226;10.400;2023-06-24T06:47:11;102045.88;;;19.80;60.43
51313;BME280;37397;53.226;10.400;2023-06-24T06:49:38;102049.06;;;19.82;60.68
51313;BME280;37397;53.226;10.400;2023-06-24T06:52:05;102049.59;;;19.86;60.66
51313;BME280;37397;53.226;10.400;2023-06-24T06:54:32;102044.38;;;19.90;60.57
51313;BME280;37397;53.226;10.400;2023-06-24T06:57:02;102054.94;;;19.93;60.31
51313;BME280;37397;53.226;10.400;2023-06-24T06:59:33;102058.09;;;19.95;60.17
51313;BME280;37397;53.226;10.400;2023-06-24T07:01:59;102052.56;;;19.97;60.28
51313;BME280;37397;53.226;10.400;2023-06-24T07:04:26;102054.41;;;20.00;60.59
51313;BME280;37397;53.226;10.400;2023-06-24T07:06:52;102049.94;;;19.99;60.21
51313;BME280;37397;53.226;10.400;2023-06-24T07:09:19;102052.88;;;20.05;60.44
51313;BME280;37397;53.226;10.400;2023-06-24T07:11:46;102062.91;;;20.10;60.58
51313;BME280;37397;53.226;10.400;2023-06-24T07:14:12;102055.50;;;20.09;60.70
51313;BME280;37397;53.226;10.400;2023-06-24T07:16:39;102063.44;;;20.14;60.57
51313;BME280;37397;53.226;10.400;2023-06-24T07:19:05;102051.63;;;20.17;60.49
51313;BME280;37397;53.226;10.400;2023-06-24T07:21:32;102060.56;;;20.19;60.20
51313;BME280;37397;53.226;10.400;2023-06-24T07:23:58;102057.94;;;20.21;60.33
51313;BME280;37397;53.226;10.400;2023-06-24T07:26:25;102059.53;;;20.22;60.16
51313;BME280;37397;53.226;10.400;2023-06-24T07:28:51;102053.50;;;20.26;59.94
51313;BME280;37397;53.226;10.400;2023-06-24T07:31:35;102068.53;;;20.30;59.87
51313;BME280;37397;53.226;10.400;2023-06-24T07:34:02;102055.63;;;20.31;60.32
51313;BME280;37397;53.226;10.400;2023-06-24T07:36:28;102052.97;;;20.33;60.38
51313;BME280;37397;53.226;10.400;2023-06-24T07:38:55;102063.53;;;20.36;60.08
51313;BME280;37397;53.226;10.400;2023-06-24T07:41:21;102053.53;;;20.37;59.99
51313;BME280;37397;53.226;10.400;2023-06-24T07:43:48;102053.78;;;20.39;59.87
51313;BME280;37397;53.226;10.400;2023-06-24T07:46:14;102047.22;;;20.45;59.75
51313;BME280;37397;53.226;10.400;2023-06-24T07:48:41;102054.34;;;20.44;59.43
51313;BME280;37397;53.226;10.400;2023-06-24T07:51:07;102056.47;;;20.49;59.67
51313;BME280;37397;53.226;10.400;2023-06-24T07:53:35;102053.56;;;20.49;59.49
51313;BME280;37397;53.226;10.400;2023-06-24T07:56:02;102061.75;;;20.50;59.51
51313;BME280;37397;53.226;10.400;2023-06-24T07:58:28;102063.09;;;20.55;59.27
51313;BME280;37397;53.226;10.400;2023-06-24T08:00:55;102061.22;;;20.57;59.17
51313;BME280;37397;53.226;10.400;2023-06-24T08:03:21;102061.53;;;20.59;59.32
51313;BME280;37397;53.226;10.400;2023-06-24T08:05:49;102062.81;;;20.58;59.46
51313;BME280;37397;53.226;10.400;2023-06-24T08:08:16;102071.59;;;20.64;59.51
51313;BME280;37397;53.226;10.400;2023-06-24T08:10:46;102050.97;;;20.62;59.40
51313;BME280;37397;53.226;10.400;2023-06-24T08:13:12;102065.78;;;20.70;59.38
51313;BME280;37397;53.226;10.400;2023-06-24T08:15:39;102063.97;;;20.72;59.42
51313;BME280;37397;53.226;10.400;2023-06-24T08:18:08;102066.84;;;20.78;59.25
51313;BME280;37397;53.226;10.400;2023-06-24T08:20:34;102055.53;;;20.80;59.42
51313;BME280;37397;53.226;10.400;2023-06-24T08:23:01;102066.88;;;20.84;59.35
51313;BME280;37397;53.226;10.400;2023-06-24T08:25:27;102071.63;;;20.87;59.45
51313;BME280;37397;53.226;10.400;2023-06-24T08:27:54;102069.00;;;20.89;59.45
51313;BME280;37397;53.226;10.400;2023-06-24T08:30:21;102065.03;;;20.92;59.24
51313;BME280;37397;53.226;10.400;2023-06-24T08:32:47;102068.22;;;20.94;59.46
51313;BME280;37397;53.226;10.400;2023-06-24T08:35:14;102065.84;;;20.98;59.48
51313;BME280;37397;53.226;10.400;2023-06-24T08:37:41;102070.59;;;21.01;59.46
51313;BME280;37397;53.226;10.400;2023-06-24T08:40:07;102062.94;;;21.04;59.23
51313;BME280;37397;53.226;10.400;2023-06-24T08:42:35;102056.88;;;21.07;59.38
51313;BME280;37397;53.226;10.400;2023-06-24T08:45:01;102046.84;;;21.08;59.20
51313;BME280;37397;53.226;10.400;2023-06-24T08:47:28;102059.00;;;21.12;59.28
51313;BME280;37397;53.226;10.400;2023-06-24T08:50:12;102048.97;;;21.13;59.14
51313;BME280;37397;53.226;10.400;2023-06-24T08:52:45;102062.69;;;21.19;59.12
51313;BME280;37397;53.226;10.400;2023-06-24T08:55:16;102060.84;;;21.21;59.08
51313;BME280;37397;53.226;10.400;2023-06-24T08:57:43;102052.38;;;21.23;58.98
51313;BME280;37397;53.226;10.400;2023-06-24T09:00:10;102053.72;;;21.28;58.81
51313;BME280;37397;53.226;10.400;2023-06-24T09:02:37;102050.28;;;21.29;58.79
51313;BME280;37397;53.226;10.400;2023-06-24T09:05:06;102050.00;;;21.33;58.68
51313;BME280;37397;53.226;10.400;2023-06-24T09:07:33;102044.19;;;21.33;58.82
51313;BME280;37397;53.226;10.400;2023-06-24T09:09:59;102052.91;;;21.39;58.56
51313;BME280;37397;53.226;10.400;2023-06-24T09:12:34;102046.59;;;21.40;58.26
51313;BME280;37397;53.226;10.400;2023-06-24T09:15:02;102037.88;;;21.40;58.20
51313;BME280;37397;53.226;10.400;2023-06-24T09:17:29;102043.66;;;21.46;58.19
51313;BME280;37397;53.226;10.400;2023-06-24T09:20:04;102047.38;;;21.46;57.92
51313;BME280;37397;53.226;10.400;2023-06-24T09:22:31;102046.34;;;21.49;58.06
51313;BME280;37397;53.226;10.400;2023-06-24T09:25:00;102034.72;;;21.49;57.93
51313;BME280;37397;53.226;10.400;2023-06-24T09:27:31;102038.94;;;21.54;57.78
51313;BME280;37397;53.226;10.400;2023-06-24T09:29:58;102032.59;;;21.56;57.76
51313;BME280;37397;53.226;10.400;2023-06-24T09:32:31;102034.44;;;21.59;57.63
51313;BME280;37397;53.226;10.400;2023-06-24T09:34:58;102042.09;;;21.62;57.58
51313;BME280;37397;53.226;10.400;2023-06-24T09:37:29;102033.38;;;21.62;57.54
51313;BME280;37397;53.226;10.400;2023-06-24T09:39:57;102036.56;;;21.64;57.46
51313;BME280;37397;53.226;10.400;2023-06-24T09:42:24;102044.22;;;21.67;56.90
51313;BME280;37397;53.226;10.400;2023-06-24T09:44:54;102041.31;;;21.67;56.77
51313;BME280;37397;53.226;10.400;2023-06-24T09:47:21;102042.59;;;21.72;56.60
51313;BME280;37397;53.226;10.400;2023-06-24T09:49:52;102050.53;;;21.71;56.82
51313;BME280;37397;53.226;10.400;2023-06-24T09:52:19;102046.03;;;21.70;56.70
51313;BME280;37397;53.226;10.400;2023-06-24T09:54:50;102033.34;;;21.73;56.68
51313;BME280;37397;53.226;10.400;2023-06-24T09:57:24;102038.38;;;21.78;56.67
51313;BME280;37397;53.226;10.400;2023-06-24T09:59:52;102030.97;;;21.77;56.72
51313;BME280;37397;53.226;10.400;2023-06-24T10:02:19;102031.75;;;21.83;56.55
51313;BME280;37397;53.226;10.400;2023-06-24T10:04:46;102037.56;;;21.83;56.56
51313;BME280;37397;53.226;10.400;2023-06-24T10:07:14;102018.78;;;21.84;56.59
51313;BME280;37397;53.226;10.400;2023-06-24T10:09:41;102013.25;;;21.87;56.70
51313;BME280;37397;53.226;10.400;2023-06-24T10:12:08;102018.25;;;21.92;56.69
51313;BME280;37397;53.226;10.400;2023-06-24T10:14:35;102014.81;;;21.93;56.75
51313;BME280;37397;53.226;10.400;2023-06-24T10:17:03;102020.59;;;21.99;56.70
51313;BME280;37397;53.226;10.400;2023-06-24T10:19:40;102015.59;;;21.94;56.62
51313;BME280;37397;53.226;10.400;2023-06-24T10:22:08;102015.28;;;22.03;56.57
51313;BME280;37397;53.226;10.400;2023-06-24T10:24:38;102017.13;;;22.06;56.62
51313;BME280;37397;53.226;10.400;2023-06-24T10:27:14;102005.75;;;22.08;56.76
51313;BME280;37397;53.226;10.400;2023-06-24T10:29:46;102012.63;;;22.11;56.61
51313;BME280;37397;53.226;10.400;2023-06-24T10:32:13;101995.44;;;22.13;56.71
51313;BME280;37397;53.226;10.400;2023-06-24T10:34:43;101993.81;;;22.17;56.74
51313;BME280;37397;53.226;10.400;2023-06-24T10:37:19;102001.47;;;22.20;56.76
51313;BME280;37397;53.226;10.400;2023-06-24T10:39:56;101995.91;;;22.22;56.34
51313;BME280;37397;53.226;10.400;2023-06-24T10:44:51;101992.72;;;22.32;56.56
51313;BME280;37397;53.226;10.400;2023-06-24T10:47:18;101990.06;;;22.34;56.49
51313;BME280;37397;53.226;10.400;2023-06-24T10:49:45;101988.22;;;22.36;56.47
51313;BME280;37397;53.226;10.400;2023-06-24T10:52:12;101977.34;;;22.37;56.37
51313;BME280;37397;53.226;10.400;2023-06-24T10:54:40;101977.59;;;22.39;56.27
51313;BME280;37397;53.226;10.400;2023-06-24T10:57:07;101973.84;;;22.44;56.19
51313;BME280;37397;53.226;10.400;2023-06-24T10:59:35;101974.13;;;22.46;56.11
51313;BME280;37397;53.226;10.400;2023-06-24T11:02:02;101974.63;;;22.50;56.12
51313;BME280;37397;53.226;10.400;2023-06-24T11:04:28;101967.47;;;22.51;55.92
51313;BME280;37397;53.226;10.400;2023-06-24T11:06:59;101973.78;;;22.55;55.84
51313;BME280;37397;53.226;10.400;2023-06-24T11:09:26;101966.88;;;22.58;55.89
51313;BME280;37397;53.226;10.400;2023-06-24T11:11:53;101968.72;;;22.62;56.00
51313;BME280;37397;53.226;10.400;2023-06-24T11:14:20;101967.66;;;22.65;55.88
51313;BME280;37397;53.226;10.400;2023-06-24T11:16:46;101958.63;;;22.68;56.03
51313;BME280;37397;53.226;10.400;2023-06-24T11:19:13;101975.53;;;22.70;55.70
51313;BME280;37397;53.226;10.400;2023-06-24T11:21:39;101963.91;;;22.70;55.55
51313;BME280;37397;53.226;10.400;2023-06-24T11:24:06;101964.41;;;22.74;55.71
51313;BME280;37397;53.226;10.400;2023-06-24T11:26:33;101967.78;;;22.78;55.55
51313;BME280;37397;53.226;10.400;2023-06-24T11:28:59;101957.97;;;22.81;55.31
51313;BME280;37397;53.226;10.400;2023-06-24T11:31:26;101944.47;;;22.84;55.62
51313;BME280;37397;53.226;10.400;2023-06-24T11:33:53;101948.16;;;22.84;55.59
51313;BME280;37397;53.226;10.400;2023-06-24T11:36:22;101950.28;;;22.89;55.68
51313;BME280;37397;53.226;10.400;2023-06-24T11:38:49;101947.84;;;22.93;55.15
51313;BME280;37397;53.226;10.400;2023-06-24T11:41:15;101944.63;;;22.97;55.49
51313;BME280;37397;53.226;10.400;2023-06-24T11:43:45;101947.25;;;23.01;55.29
51313;BME280;37397;53.226;10.400;2023-06-24T11:46:23;101944.59;;;23.03;55.54
51313;BME280;37397;53.226;10.400;2023-06-24T11:48:50;101941.38;;;23.06;55.50
51313;BME280;37397;53.226;10.400;2023-06-24T11:51:16;101940.31;;;23.09;55.46
51313;BME280;37397;53.226;10.400;2023-06-24T11:53:44;101944.50;;;23.14;55.51
51313;BME280;37397;53.226;10.400;2023-06-24T11:56:12;101938.38;;;23.18;55.32
51313;BME280;37397;53.226;10.400;2023-06-24T11:58:39;101938.88;;;23.22;55.44
51313;BME280;37397;53.226;10.400;2023-06-24T12:01:08;101941.25;;;23.23;55.25
51313;BME280;37397;53.226;10.400;2023-06-24T12:03:35;101944.63;;;23.27;55.37
51313;BME280;37397;53.226;10.400;2023-06-24T12:06:02;101940.63;;;23.30;55.24
51313;BME280;37397;53.226;10.400;2023-06-24T12:08:28;101938.22;;;23.35;55.17
51313;BME280;37397;53.226;10.400;2023-06-24T12:11:15;101935.53;;;23.37;55.36
51313;BME280;37397;53.226;10.400;2023-06-24T12:13:42;101930.44;;;23.43;55.15
51313;BME280;37397;53.226;10.400;2023-06-24T12:16:08;101932.25;;;23.46;55.19
51313;BME280;37397;53.226;10.400;2023-06-24T12:18:35;101928.25;;;23.49;55.08
51313;BME280;37397;53.226;10.400;2023-06-24T12:21:01;101930.03;;;23.52;55.17
51313;BME280;37397;53.226;10.400;2023-06-24T12:23:28;101920.22;;;23.55;55.13
51313;BME280;37397;53.226;10.400;2023-06-24T12:25:55;101923.84;;;23.61;55.31
51313;BME280;37397;53.226;10.400;2023-06-24T12:28:21;101932.81;;;23.63;55.05
51313;BME280;37397;53.226;10.400;2023-06-24T12:30:48;101917.16;;;23.66;54.83
51313;BME280;37397;53.226;10.400;2023-06-24T12:33:14;101916.88;;;23.70;54.66
51313;BME280;37397;53.226;10.400;2023-06-24T12:35:41;101914.97;;;23.73;54.83
51313;BME280;37397;53.226;10.400;2023-06-24T12:38:08;101925.75;;;23.78;54.92
51313;BME280;37397;53.226;10.400;2023-06-24T12:40:35;101930.50;;;23.81;54.27
51313;BME280;37397;53.226;10.400;2023-06-24T12:43:02;101914.34;;;23.80;54.43
51313;BME280;37397;53.226;10.400;2023-06-24T12:45:29;101927.56;;;23.87;54.26
51313;BME280;37397;53.226;10.400;2023-06-24T12:47:56;101916.91;;;23.89;54.56
51313;BME280;37397;53.226;10.400;2023-06-24T12:50:22;101917.38;;;23.93;54.23
51313;BME280;37397;53.226;10.400;2023-06-24T12:52:49;101917.38;;;23.93;54.42
51313;BME280;37397;53.226;10.400;2023-06-24T12:55:15;101916.28;;;23.96;53.68
51313;BME280;37397;53.226;10.400;2023-06-24T12:57:43;101919.09;;;24.02;53.33
51313;BME280;37397;53.226;10.400;2023-06-24T13:00:10;101917.22;;;24.05;53.30